sensor_id;sensor_type;location;lat;lon;timestamp;pressure;altitude;pressure_sealevel;temperature
53667;BMP280;39568;51.026;5.468;2022-10-30T00:00:04;100915.34;;;18.06
53667;BMP280;39568;51.026;5.468;2022-10-30T00:02:33;100919.09;;;17.95
53667;BMP280;39568;51.026;5.468;2022-10-30T00:05:01;100915.47;;;17.93
53667;BMP280;39568;51.026;5.468;2022-10-30T00:07:29;100911.19;;;17.90
53667;BMP280;39568;51.026;5.468;2022-10-30T00:10:05;100913.31;;;17.84
53667;BMP280;39568;51.026;5.468;2022-10-30T00:12:32;100915.41;;;17.78
53667;BMP280;39568;51.026;5.468;2022-10-30T00:15:00;100913.22;;;17.68
53667;BMP280;39568;51.026;5.468;2022-10-30T00:17:28;100917.91;;;17.68
53667;BMP280;39568;51.026;5.468;2022-10-30T00:20:05;100909.03;;;17.52
53667;BMP280;39568;51.026;5.468;2022-10-30T00:22:32;100904.53;;;17.47
53667;BMP280;39568;51.026;5.468;2022-10-30T00:25:00;100904.47;;;17.40
53667;BMP280;39568;51.026;5.468;2022-10-30T00:27:27;100899.94;;;17.35
53667;BMP280;39568;51.026;5.468;2022-10-30T00:29:57;100902.75;;;17.29
53667;BMP280;39568;51.026;5.468;2022-10-30T00:32:28;100897.28;;;17.14
53667;BMP280;39568;51.026;5.468;2022-10-30T00:34:54;100890.38;;;16.98
53667;BMP280;39568;51.026;5.468;2022-10-30T00:37:24;100897.34;;;16.93
53667;BMP280;39568;51.026;5.468;2022-10-30T00:40:02;100892.59;;;16.86
53667;BMP280;39568;51.026;5.468;2022-10-30T00:42:35;100886.06;;;16.74
53667;BMP280;39568;51.026;5.468;2022-10-30T00:45:02;100892.81;;;16.68
53667;BMP280;39568;51.026;5.468;2022-10-30T00:47:31;100886.44;;;16.58
53667;BMP280;39568;51.026;5.468;2022-10-30T00:50:02;100891.81;;;16.58
53667;BMP280;39568;51.026;5.468;2022-10-30T00:52:36;100883.59;;;16.63
53667;BMP280;39568;51.026;5.468;2022-10-30T00:55:07;100884.81;;;16.55
53667;BMP280;39568;51.026;5.468;2022-10-30T00:57:35;100892.47;;;16.51
53667;BMP280;39568;51.026;5.468;2022-10-30T01:00:06;100895.19;;;16.38
53667;BMP280;39568;51.026;5.468;2022-10-30T01:02:35;100882.81;;;16.35
53667;BMP280;39568;51.026;5.468;2022-10-30T01:05:03;100882.31;;;16.23
53667;BMP280;39568;51.026;5.468;2022-10-30T01:07:30;100880.16;;;16.22
53667;BMP280;39568;51.026;5.468;2022-10-30T01:09:58;100883.06;;;16.24
53667;BMP280;39568;51.026;5.468;2022-10-30T01:12:26;100886.81;;;16.07
53667;BMP280;39568;51.026;5.468;2022-10-30T01:14:55;100882.34;;;16.10
53667;BMP280;39568;51.026;5.468;2022-10-30T01:17:36;100893.09;;;16.10
53667;BMP280;39568;51.026;5.468;2022-10-30T01:20:24;100889.31;;;15.92
53667;BMP280;39568;51.026;5.468;2022-10-30T01:23:01;100890.22;;;15.82
53667;BMP280;39568;51.026;5.468;2022-10-30T01:25:41;100900.69;;;15.72
53667;BMP280;39568;51.026;5.468;2022-10-30T01:28:25;100910.88;;;15.61
53667;BMP280;39568;51.026;5.468;2022-10-30T01:31:03;100902.72;;;15.53
53667;BMP280;39568;51.026;5.468;2022-10-30T01:33:42;100909.91;;;15.32
53667;BMP280;39568;51.026;5.468;2022-10-30T01:36:18;100907.44;;;15.34
53667;BMP280;39568;51.026;5.468;2022-10-30T01:38:57;100906.41;;;15.24
53667;BMP280;39568;51.026;5.468;2022-10-30T01:41:36;100908.75;;;15.14
53667;BMP280;39568;51.026;5.468;2022-10-30T01:44:07;100914.72;;;15.07
53667;BMP280;39568;51.026;5.468;2022-10-30T01:46:45;100907.78;;;14.99
53667;BMP280;39568;51.026;5.468;2022-10-30T01:49:43;100902.25;;;14.91
53667;BMP280;39568;51.026;5.468;2022-10-30T01:52:21;100907.94;;;14.88
53667;BMP280;39568;51.026;5.468;2022-10-30T01:54:57;100906.94;;;14.72
53667;BMP280;39568;51.026;5.468;2022-10-30T01:57:34;100912.75;;;14.57
53667;BMP280;39568;51.026;5.468;2022-10-30T02:00:05;100899.25;;;14.44
53667;BMP280;39568;51.026;5.468;2022-10-30T02:02:33;100893.88;;;14.31
53667;BMP280;39568;51.026;5.468;2022-10-30T02:05:04;100904.69;;;14.20
53667;BMP280;39568;51.026;5.468;2022-10-30T02:07:32;100903.84;;;14.12
53667;BMP280;39568;51.026;5.468;2022-10-30T02:09:58;100904.38;;;14.05
53667;BMP280;39568;51.026;5.468;2022-10-30T02:12:25;100905.84;;;14.06
53667;BMP280;39568;51.026;5.468;2022-10-30T02:14:57;100915.16;;;13.99
53667;BMP280;39568;51.026;5.468;2022-10-30T02:17:26;100908.63;;;13.95
53667;BMP280;39568;51.026;5.468;2022-10-30T02:19:53;100916.00;;;13.89
53667;BMP280;39568;51.026;5.468;2022-10-30T02:22:21;100913.88;;;13.82
53667;BMP280;39568;51.026;5.468;2022-10-30T02:24:52;100910.72;;;13.78
53667;BMP280;39568;51.026;5.468;2022-10-30T02:27:18;100907.41;;;13.72
53667;BMP280;39568;51.026;5.468;2022-10-30T02:29:45;100901.63;;;13.68
53667;BMP280;39568;51.026;5.468;2022-10-30T02:32:13;100909.19;;;13.64
53667;BMP280;39568;51.026;5.468;2022-10-30T02:34:41;100910.47;;;13.57
53667;BMP280;39568;51.026;5.468;2022-10-30T02:37:08;100911.94;;;13.53
53667;BMP280;39568;51.026;5.468;2022-10-30T02:39:38;100903.00;;;13.50
53667;BMP280;39568;51.026;5.468;2022-10-30T02:42:06;100907.19;;;13.46
53667;BMP280;39568;51.026;5.468;2022-10-30T02:44:34;100922.75;;;13.42
53667;BMP280;39568;51.026;5.468;2022-10-30T02:47:04;100921.78;;;13.39
53667;BMP280;39568;51.026;5.468;2022-10-30T02:49:42;100921.56;;;13.37
53667;BMP280;39568;51.026;5.468;2022-10-30T02:52:12;100917.22;;;13.34
53667;BMP280;39568;51.026;5.468;2022-10-30T02:54:45;100916.50;;;13.33
53667;BMP280;39568;51.026;5.468;2022-10-30T02:57:13;100913.63;;;13.56
53667;BMP280;39568;51.026;5.468;2022-10-30T02:59:40;100918.81;;;13.72
53667;BMP280;39568;51.026;5.468;2022-10-30T03:02:06;100920.72;;;13.77
53667;BMP280;39568;51.026;5.468;2022-10-30T03:04:33;100926.59;;;13.76
53667;BMP280;39568;51.026;5.468;2022-10-30T03:07:04;100927.69;;;13.62
53667;BMP280;39568;51.026;5.468;2022-10-30T03:09:34;100929.81;;;13.69
53667;BMP280;39568;51.026;5.468;2022-10-30T03:12:02;100927.88;;;13.69
53667;BMP280;39568;51.026;5.468;2022-10-30T03:14:29;100923.84;;;13.57
53667;BMP280;39568;51.026;5.468;2022-10-30T03:16:55;100919.28;;;13.47
53667;BMP280;39568;51.026;5.468;2022-10-30T03:19:22;100922.31;;;13.37
53667;BMP280;39568;51.026;5.468;2022-10-30T03:21:49;100911.88;;;13.34
53667;BMP280;39568;51.026;5.468;2022-10-30T03:24:15;100918.66;;;13.35
53667;BMP280;39568;51.026;5.468;2022-10-30T03:26:45;100918.41;;;13.38
53667;BMP280;39568;51.026;5.468;2022-10-30T03:29:15;100923.47;;;13.42
53667;BMP280;39568;51.026;5.468;2022-10-30T03:31:44;100919.22;;;13.58
53667;BMP280;39568;51.026;5.468;2022-10-30T03:34:11;100920.56;;;13.40
53667;BMP280;39568;51.026;5.468;2022-10-30T03:36:39;100921.38;;;13.29
53667;BMP280;39568;51.026;5.468;2022-10-30T03:39:07;100916.59;;;13.22
53667;BMP280;39568;51.026;5.468;2022-10-30T03:41:37;100910.53;;;13.16
53667;BMP280;39568;51.026;5.468;2022-10-30T03:44:07;100908.88;;;13.08
53667;BMP280;39568;51.026;5.468;2022-10-30T03:46:35;100915.25;;;13.05
53667;BMP280;39568;51.026;5.468;2022-10-30T03:49:03;100906.78;;;13.01
53667;BMP280;39568;51.026;5.468;2022-10-30T03:51:30;100903.38;;;13.00
53667;BMP280;39568;51.026;5.468;2022-10-30T03:53:56;100903.59;;;13.02
53667;BMP280;39568;51.026;5.468;2022-10-30T03:56:23;100915.69;;;13.09
53667;BMP280;39568;51.026;5.468;2022-10-30T03:58:50;100914.22;;;13.13
53667;BMP280;39568;51.026;5.468;2022-10-30T04:01:17;100905.47;;;13.13
53667;BMP280;39568;51.026;5.468;2022-10-30T04:03:49;100907.44;;;13.12
53667;BMP280;39568;51.026;5.468;2022-10-30T04:06:15;100904.25;;;13.14
53667;BMP280;39568;51.026;5.468;2022-10-30T04:08:44;100904.75;;;13.12
53667;BMP280;39568;51.026;5.468;2022-10-30T04:11:11;100905.25;;;13.11
53667;BMP280;39568;51.026;5.468;2022-10-30T04:13:43;100912.47;;;13.16
53667;BMP280;39568;51.026;5.468;2022-10-30T04:16:11;100927.28;;;13.22
53667;BMP280;39568;51.026;5.468;2022-10-30T04:18:41;100926.63;;;13.40
53667;BMP280;39568;51.026;5.468;2022-10-30T04:21:13;100930.34;;;13.32
53667;BMP280;39568;51.026;5.468;2022-10-30T04:23:39;100922.22;;;13.19
53667;BMP280;39568;51.026;5.468;2022-10-30T04:26:11;100923.72;;;13.09
53667;BMP280;39568;51.026;5.468;2022-10-30T04:28:39;100915.75;;;13.03
53667;BMP280;39568;51.026;5.468;2022-10-30T04:31:06;100909.47;;;12.95
53667;BMP280;39568;51.026;5.468;2022-10-30T04:33:32;100908.56;;;12.87
53667;BMP280;39568;51.026;5.468;2022-10-30T04:35:59;100909.09;;;12.80
53667;BMP280;39568;51.026;5.468;2022-10-30T04:38:31;100907.16;;;12.75
53667;BMP280;39568;51.026;5.468;2022-10-30T04:40:58;100910.84;;;12.72
53667;BMP280;39568;51.026;5.468;2022-10-30T04:43:24;100909.13;;;12.69
53667;BMP280;39568;51.026;5.468;2022-10-30T04:45:51;100912.56;;;12.64
53667;BMP280;39568;51.026;5.468;2022-10-30T04:48:18;100906.06;;;12.59
53667;BMP280;39568;51.026;5.468;2022-10-30T04:50:45;100896.09;;;12.60
53667;BMP280;39568;51.026;5.468;2022-10-30T04:53:13;100888.09;;;12.54
53667;BMP280;39568;51.026;5.468;2022-10-30T04:55:42;100900.03;;;12.48
53667;BMP280;39568;51.026;5.468;2022-10-30T04:58:10;100904.00;;;12.77
53667;BMP280;39568;51.026;5.468;2022-10-30T05:00:39;100897.25;;;12.64
53667;BMP280;39568;51.026;5.468;2022-10-30T05:03:06;100891.28;;;12.47
53667;BMP280;39568;51.026;5.468;2022-10-30T05:05:34;100894.47;;;12.40
53667;BMP280;39568;51.026;5.468;2022-10-30T05:08:01;100888.94;;;12.33
53667;BMP280;39568;51.026;5.468;2022-10-30T05:10:27;100890.88;;;12.27
53667;BMP280;39568;51.026;5.468;2022-10-30T05:12:56;100892.84;;;12.21
53667;BMP280;39568;51.026;5.468;2022-10-30T05:15:24;100888.25;;;12.16
53667;BMP280;39568;51.026;5.468;2022-10-30T05:17:55;100881.97;;;12.07
53667;BMP280;39568;51.026;5.468;2022-10-30T05:20:21;100886.38;;;12.05
53667;BMP280;39568;51.026;5.468;2022-10-30T05:22:53;100876.88;;;11.98
53667;BMP280;39568;51.026;5.468;2022-10-30T05:25:20;100885.66;;;11.93
53667;BMP280;39568;51.026;5.468;2022-10-30T05:27:57;100876.94;;;11.87
53667;BMP280;39568;51.026;5.468;2022-10-30T05:30:25;100870.41;;;11.83
53667;BMP280;39568;51.026;5.468;2022-10-30T05:32:56;100871.84;;;11.84
53667;BMP280;39568;51.026;5.468;2022-10-30T05:35:23;100869.19;;;11.78
53667;BMP280;39568;51.026;5.468;2022-10-30T05:37:50;100873.81;;;11.72
53667;BMP280;39568;51.026;5.468;2022-10-30T05:40:19;100875.00;;;11.71
53667;BMP280;39568;51.026;5.468;2022-10-30T05:42:46;100871.84;;;11.84
53667;BMP280;39568;51.026;5.468;2022-10-30T05:45:14;100879.88;;;11.67
53667;BMP280;39568;51.026;5.468;2022-10-30T05:47:41;100876.50;;;11.61
53667;BMP280;39568;51.026;5.468;2022-10-30T05:50:08;100882.53;;;11.73
53667;BMP280;39568;51.026;5.468;2022-10-30T05:52:35;100873.56;;;11.59
53667;BMP280;39568;51.026;5.468;2022-10-30T05:55:03;100885.00;;;11.54
53667;BMP280;39568;51.026;5.468;2022-10-30T05:57:29;100881.09;;;11.44
53667;BMP280;39568;51.026;5.468;2022-10-30T05:59:57;100881.31;;;11.40
53667;BMP280;39568;51.026;5.468;2022-10-30T06:02:26;100875.75;;;11.33
53667;BMP280;39568;51.026;5.468;2022-10-30T06:04:57;100876.47;;;11.28
53667;BMP280;39568;51.026;5.468;2022-10-30T06:07:25;100866.56;;;11.23
53667;BMP280;39568;51.026;5.468;2022-10-30T06:09:52;100874.56;;;11.23
53667;BMP280;39568;51.026;5.468;2022-10-30T06:12:19;100866.06;;;11.24
53667;BMP280;39568;51.026;5.468;2022-10-30T06:14:45;100863.91;;;11.34
53667;BMP280;39568;51.026;5.468;2022-10-30T06:17:12;100865.84;;;11.39
53667;BMP280;39568;51.026;5.468;2022-10-30T06:19:40;100862.69;;;11.35
53667;BMP280;39568;51.026;5.468;2022-10-30T06:22:06;100863.16;;;11.33
53667;BMP280;39568;51.026;5.468;2022-10-30T06:24:33;100872.16;;;11.30
53667;BMP280;39568;51.026;5.468;2022-10-30T06:27:00;100864.13;;;11.41
53667;BMP280;39568;51.026;5.468;2022-10-30T06:29:27;100866.81;;;11.47
53667;BMP280;39568;51.026;5.468;2022-10-30T06:31:54;100875.75;;;11.50
53667;BMP280;39568;51.026;5.468;2022-10-30T06:34:21;100874.56;;;11.45
53667;BMP280;39568;51.026;5.468;2022-10-30T06:36:49;100871.88;;;11.39
53667;BMP280;39568;51.026;5.468;2022-10-30T06:39:16;100862.44;;;11.33
53667;BMP280;39568;51.026;5.468;2022-10-30T06:41:43;100867.03;;;11.32
53667;BMP280;39568;51.026;5.468;2022-10-30T06:44:19;100863.19;;;11.39
53667;BMP280;39568;51.026;5.468;2022-10-30T06:46:46;100865.59;;;11.54
53667;BMP280;39568;51.026;5.468;2022-10-30T06:49:13;100863.88;;;11.67
53667;BMP280;39568;51.026;5.468;2022-10-30T06:51:43;100871.38;;;11.80
53667;BMP280;39568;51.026;5.468;2022-10-30T06:54:11;100860.19;;;11.92
53667;BMP280;39568;51.026;5.468;2022-10-30T06:56:38;100866.47;;;12.00
53667;BMP280;39568;51.026;5.468;2022-10-30T06:59:06;100863.06;;;12.05
53667;BMP280;39568;51.026;5.468;2022-10-30T07:01:35;100857.00;;;12.11
53667;BMP280;39568;51.026;5.468;2022-10-30T07:04:02;100849.94;;;12.13
53667;BMP280;39568;51.026;5.468;2022-10-30T07:06:28;100851.66;;;12.16
53667;BMP280;39568;51.026;5.468;2022-10-30T07:08:55;100850.91;;;12.21
53667;BMP280;39568;51.026;5.468;2022-10-30T07:11:24;100860.31;;;12.28
53667;BMP280;39568;51.026;5.468;2022-10-30T07:13:50;100856.16;;;12.38
53667;BMP280;39568;51.026;5.468;2022-10-30T07:16:17;100863.16;;;12.46
53667;BMP280;39568;51.026;5.468;2022-10-30T07:18:44;100863.09;;;12.57
53667;BMP280;39568;51.026;5.468;2022-10-30T07:21:10;100857.94;;;12.65
53667;BMP280;39568;51.026;5.468;2022-10-30T07:23:37;100850.59;;;12.77
53667;BMP280;39568;51.026;5.468;2022-10-30T07:26:04;100855.16;;;12.87
53667;BMP280;39568;51.026;5.468;2022-10-30T07:28:40;100844.41;;;12.98
53667;BMP280;39568;51.026;5.468;2022-10-30T07:31:10;100852.06;;;13.13
53667;BMP280;39568;51.026;5.468;2022-10-30T07:33:39;100858.28;;;13.26
53667;BMP280;39568;51.026;5.468;2022-10-30T07:36:20;100854.47;;;13.40
53667;BMP280;39568;51.026;5.468;2022-10-30T07:38:58;100860.41;;;13.58
53667;BMP280;39568;51.026;5.468;2022-10-30T07:41:26;100863.06;;;13.82
53667;BMP280;39568;51.026;5.468;2022-10-30T07:43:54;100866.44;;;14.06
53667;BMP280;39568;51.026;5.468;2022-10-30T07:46:21;100861.94;;;14.33
53667;BMP280;39568;51.026;5.468;2022-10-30T07:48:47;100856.44;;;14.44
53667;BMP280;39568;51.026;5.468;2022-10-30T07:51:14;100853.19;;;14.51
53667;BMP280;39568;51.026;5.468;2022-10-30T07:53:41;100856.72;;;14.78
53667;BMP280;39568;51.026;5.468;2022-10-30T07:56:07;100849.91;;;15.22
53667;BMP280;39568;51.026;5.468;2022-10-30T07:58:34;100850.94;;;15.45
53667;BMP280;39568;51.026;5.468;2022-10-30T08:01:03;100849.16;;;15.74
53667;BMP280;39568;51.026;5.468;2022-10-30T08:03:36;100857.97;;;16.21
53667;BMP280;39568;51.026;5.468;2022-10-30T08:06:03;100861.22;;;16.61
53667;BMP280;39568;51.026;5.468;2022-10-30T08:08:31;100863.88;;;17.30
53667;BMP280;39568;51.026;5.468;2022-10-30T08:10:58;100859.75;;;17.72
53667;BMP280;39568;51.026;5.468;2022-10-30T08:13:24;100857.97;;;18.71
53667;BMP280;39568;51.026;5.468;2022-10-30T08:15:51;100854.88;;;19.12
53667;BMP280;39568;51.026;5.468;2022-10-30T08:18:21;100859.88;;;19.23
53667;BMP280;39568;51.026;5.468;2022-10-30T08:20:51;100850.91;;;19.13
53667;BMP280;39568;51.026;5.468;2022-10-30T08:23:18;100853.69;;;19.46
53667;BMP280;39568;51.026;5.468;2022-10-30T08:25:46;100856.16;;;19.59
53667;BMP280;39568;51.026;5.468;2022-10-30T08:28:12;100860.78;;;19.66
53667;BMP280;39568;51.026;5.468;2022-10-30T08:30:40;100866.03;;;19.56
53667;BMP280;39568;51.026;5.468;2022-10-30T08:33:10;100867.19;;;19.46
53667;BMP280;39568;51.026;5.468;2022-10-30T08:35:39;100868.31;;;19.20
53667;BMP280;39568;51.026;5.468;2022-10-30T08:38:12;100867.25;;;19.70
53667;BMP280;39568;51.026;5.468;2022-10-30T08:40:38;100872.44;;;20.33
53667;BMP280;39568;51.026;5.468;2022-10-30T08:43:05;100858.81;;;20.72
53667;BMP280;39568;51.026;5.468;2022-10-30T08:45:32;100863.09;;;21.10
53667;BMP280;39568;51.026;5.468;2022-10-30T08:47:59;100865.00;;;20.99
53667;BMP280;39568;51.026;5.468;2022-10-30T08:50:28;100867.16;;;21.88
53667;BMP280;39568;51.026;5.468;2022-10-30T08:52:59;100860.44;;;22.35
53667;BMP280;39568;51.026;5.468;2022-10-30T08:55:26;100863.00;;;22.33
53667;BMP280;39568;51.026;5.468;2022-10-30T08:57:53;100867.63;;;22.04
53667;BMP280;39568;51.026;5.468;2022-10-30T09:00:20;100866.72;;;22.02
53667;BMP280;39568;51.026;5.468;2022-10-30T09:02:46;100860.31;;;22.62
53667;BMP280;39568;51.026;5.468;2022-10-30T09:05:13;100860.72;;;22.39
53667;BMP280;39568;51.026;5.468;2022-10-30T09:07:44;100860.06;;;22.87
53667;BMP280;39568;51.026;5.468;2022-10-30T09:10:15;100861.00;;;23.29
53667;BMP280;39568;51.026;5.468;2022-10-30T09:12:42;100861.88;;;23.32
53667;BMP280;39568;51.026;5.468;2022-10-30T09:15:10;100867.81;;;23.40
53667;BMP280;39568;51.026;5.468;2022-10-30T09:17:39;100864.47;;;23.01
53667;BMP280;39568;51.026;5.468;2022-10-30T09:20:09;100868.75;;;23.04
53667;BMP280;39568;51.026;5.468;2022-10-30T09:22:39;100860.34;;;23.10
53667;BMP280;39568;51.026;5.468;2022-10-30T09:25:07;100858.47;;;23.12
53667;BMP280;39568;51.026;5.468;2022-10-30T09:27:38;100858.16;;;23.18
53667;BMP280;39568;51.026;5.468;2022-10-30T09:30:05;100866.06;;;23.54
53667;BMP280;39568;51.026;5.468;2022-10-30T09:32:32;100868.13;;;23.34
53667;BMP280;39568;51.026;5.468;2022-10-30T09:35:00;100864.91;;;22.59
53667;BMP280;39568;51.026;5.468;2022-10-30T09:37:27;100858.44;;;22.36
53667;BMP280;39568;51.026;5.468;2022-10-30T09:39:54;100853.97;;;22.21
53667;BMP280;39568;51.026;5.468;2022-10-30T09:51:20;100863.84;;;21.37
53667;BMP280;39568;51.026;5.468;2022-10-30T09:53:57;100866.41;;;21.35
53667;BMP280;39568;51.026;5.468;2022-10-30T09:56:31;100860.13;;;21.32
53667;BMP280;39568;51.026;5.468;2022-10-30T09:59:08;100864.88;;;22.40
53667;BMP280;39568;51.026;5.468;2022-10-30T10:01:43;100871.47;;;24.04
53667;BMP280;39568;51.026;5.468;2022-10-30T10:04:22;100861.56;;;24.50
53667;BMP280;39568;51.026;5.468;2022-10-30T10:06:54;100861.72;;;24.31
53667;BMP280;39568;51.026;5.468;2022-10-30T10:09:24;100871.72;;;25.04
53667;BMP280;39568;51.026;5.468;2022-10-30T10:11:54;100867.38;;;25.45
53667;BMP280;39568;51.026;5.468;2022-10-30T10:14:23;100866.41;;;25.98
53667;BMP280;39568;51.026;5.468;2022-10-30T10:16:52;100864.78;;;26.30
53667;BMP280;39568;51.026;5.468;2022-10-30T10:19:22;100867.16;;;24.85
53667;BMP280;39568;51.026;5.468;2022-10-30T10:21:56;100861.16;;;23.22
53667;BMP280;39568;51.026;5.468;2022-10-30T10:24:25;100852.91;;;23.01
53667;BMP280;39568;51.026;5.468;2022-10-30T10:26:55;100861.31;;;23.05
53667;BMP280;39568;51.026;5.468;2022-10-30T10:29:31;100860.44;;;23.31
53667;BMP280;39568;51.026;5.468;2022-10-30T10:35:22;100869.88;;;25.41
53667;BMP280;39568;51.026;5.468;2022-10-30T10:37:56;100853.53;;;25.41
53667;BMP280;39568;51.026;5.468;2022-10-30T10:40:36;100858.03;;;25.48
53667;BMP280;39568;51.026;5.468;2022-10-30T10:43:14;100864.44;;;25.64
53667;BMP280;39568;51.026;5.468;2022-10-30T10:45:49;100869.66;;;25.60
53667;BMP280;39568;51.026;5.468;2022-10-30T10:48:45;100865.13;;;25.76
53667;BMP280;39568;51.026;5.468;2022-10-30T10:51:19;100868.22;;;25.59
53667;BMP280;39568;51.026;5.468;2022-10-30T10:53:52;100869.75;;;24.95
53667;BMP280;39568;51.026;5.468;2022-10-30T10:56:24;100867.16;;;25.41
53667;BMP280;39568;51.026;5.468;2022-10-30T10:58:58;100864.19;;;25.83
53667;BMP280;39568;51.026;5.468;2022-10-30T11:01:33;100866.03;;;26.65
53667;BMP280;39568;51.026;5.468;2022-10-30T11:04:04;100862.84;;;26.44
53667;BMP280;39568;51.026;5.468;2022-10-30T11:06:38;100865.47;;;25.13
53667;BMP280;39568;51.026;5.468;2022-10-30T11:09:15;100851.00;;;25.22
53667;BMP280;39568;51.026;5.468;2022-10-30T11:11:44;100869.59;;;25.14
53667;BMP280;39568;51.026;5.468;2022-10-30T11:14:17;100851.56;;;26.01
53667;BMP280;39568;51.026;5.468;2022-10-30T11:16:52;100857.56;;;26.23
53667;BMP280;39568;51.026;5.468;2022-10-30T11:19:20;100853.56;;;26.74
53667;BMP280;39568;51.026;5.468;2022-10-30T11:21:50;100854.41;;;27.69
53667;BMP280;39568;51.026;5.468;2022-10-30T11:24:28;100848.09;;;27.80
53667;BMP280;39568;51.026;5.468;2022-10-30T11:27:23;100848.22;;;27.42
53667;BMP280;39568;51.026;5.468;2022-10-30T11:29:56;100851.75;;;27.17
53667;BMP280;39568;51.026;5.468;2022-10-30T11:32:26;100857.19;;;26.28
53667;BMP280;39568;51.026;5.468;2022-10-30T11:35:01;100846.34;;;26.17
53667;BMP280;39568;51.026;5.468;2022-10-30T11:37:31;100866.34;;;26.58
53667;BMP280;39568;51.026;5.468;2022-10-30T11:40:04;100853.63;;;26.37
53667;BMP280;39568;51.026;5.468;2022-10-30T11:42:38;100834.97;;;26.45
53667;BMP280;39568;51.026;5.468;2022-10-30T11:45:15;100846.41;;;28.02
53667;BMP280;39568;51.026;5.468;2022-10-30T11:47:43;100849.94;;;28.63
53667;BMP280;39568;51.026;5.468;2022-10-30T11:50:18;100855.81;;;29.51
53667;BMP280;39568;51.026;5.468;2022-10-30T11:52:53;100852.34;;;28.86
53667;BMP280;39568;51.026;5.468;2022-10-30T11:55:29;100850.94;;;27.55
53667;BMP280;39568;51.026;5.468;2022-10-30T11:57:58;100848.88;;;26.38
53667;BMP280;39568;51.026;5.468;2022-10-30T12:00:27;100841.91;;;25.75
53667;BMP280;39568;51.026;5.468;2022-10-30T12:02:55;100849.72;;;25.46
53667;BMP280;39568;51.026;5.468;2022-10-30T12:05:36;100856.84;;;25.39
53667;BMP280;39568;51.026;5.468;2022-10-30T12:08:17;100850.63;;;25.04
53667;BMP280;39568;51.026;5.468;2022-10-30T12:10:52;100837.09;;;24.83
53667;BMP280;39568;51.026;5.468;2022-10-30T12:13:23;100840.28;;;24.79
53667;BMP280;39568;51.026;5.468;2022-10-30T12:16:06;100842.94;;;25.01
53667;BMP280;39568;51.026;5.468;2022-10-30T12:18:33;100842.28;;;24.91
53667;BMP280;39568;51.026;5.468;2022-10-30T12:21:01;100844.19;;;24.55
53667;BMP280;39568;51.026;5.468;2022-10-30T12:23:31;100840.84;;;24.24
53667;BMP280;39568;51.026;5.468;2022-10-30T12:26:00;100839.25;;;24.96
53667;BMP280;39568;51.026;5.468;2022-10-30T12:28:33;100828.00;;;26.06
53667;BMP280;39568;51.026;5.468;2022-10-30T12:31:11;100831.84;;;25.66
53667;BMP280;39568;51.026;5.468;2022-10-30T12:33:41;100824.25;;;25.53
53667;BMP280;39568;51.026;5.468;2022-10-30T12:36:16;100829.84;;;25.66
53667;BMP280;39568;51.026;5.468;2022-10-30T12:38:50;100827.34;;;25.70
53667;BMP280;39568;51.026;5.468;2022-10-30T12:41:21;100822.72;;;25.61
53667;BMP280;39568;51.026;5.468;2022-10-30T12:43:55;100818.44;;;25.81
53667;BMP280;39568;51.026;5.468;2022-10-30T12:46:35;100825.09;;;25.55
53667;BMP280;39568;51.026;5.468;2022-10-30T12:49:10;100819.66;;;25.21
53667;BMP280;39568;51.026;5.468;2022-10-30T12:51:46;100830.03;;;24.90
53667;BMP280;39568;51.026;5.468;2022-10-30T12:54:23;100816.75;;;24.96
53667;BMP280;39568;51.026;5.468;2022-10-30T12:56:56;100820.41;;;24.23
53667;BMP280;39568;51.026;5.468;2022-10-30T12:59:33;100827.63;;;24.09
53667;BMP280;39568;51.026;5.468;2022-10-30T13:02:11;100830.34;;;23.88
53667;BMP280;39568;51.026;5.468;2022-10-30T13:04:43;100814.97;;;24.23
53667;BMP280;39568;51.026;5.468;2022-10-30T13:07:16;100817.03;;;23.92
53667;BMP280;39568;51.026;5.468;2022-10-30T13:10:04;100817.16;;;23.54
53667;BMP280;39568;51.026;5.468;2022-10-30T13:12:38;100808.16;;;23.21
53667;BMP280;39568;51.026;5.468;2022-10-30T13:15:09;100811.41;;;23.69
53667;BMP280;39568;51.026;5.468;2022-10-30T13:17:40;100804.41;;;23.66
53667;BMP280;39568;51.026;5.468;2022-10-30T13:20:10;100797.84;;;23.90
53667;BMP280;39568;51.026;5.468;2022-10-30T13:22:39;100803.38;;;24.23
53667;BMP280;39568;51.026;5.468;2022-10-30T13:25:14;100804.59;;;24.64
53667;BMP280;39568;51.026;5.468;2022-10-30T13:27:47;100803.66;;;24.71
53667;BMP280;39568;51.026;5.468;2022-10-30T13:30:18;100804.94;;;25.03
53667;BMP280;39568;51.026;5.468;2022-10-30T13:32:56;100822.63;;;24.69
53667;BMP280;39568;51.026;5.468;2022-10-30T13:35:33;100813.50;;;24.43
53667;BMP280;39568;51.026;5.468;2022-10-30T13:38:10;100821.28;;;24.37
53667;BMP280;39568;51.026;5.468;2022-10-30T13:40:43;100823.88;;;25.01
53667;BMP280;39568;51.026;5.468;2022-10-30T13:43:20;100809.69;;;25.83
53667;BMP280;39568;51.026;5.468;2022-10-30T13:48:49;100811.06;;;24.92
53667;BMP280;39568;51.026;5.468;2022-10-30T13:51:39;100820.38;;;24.44
53667;BMP280;39568;51.026;5.468;2022-10-30T13:54:15;100825.19;;;24.34
53667;BMP280;39568;51.026;5.468;2022-10-30T13:56:45;100815.53;;;24.22
53667;BMP280;39568;51.026;5.468;2022-10-30T13:59:30;100813.78;;;24.26
53667;BMP280;39568;51.026;5.468;2022-10-30T14:02:03;100814.03;;;24.09
53667;BMP280;39568;51.026;5.468;2022-10-30T14:04:35;100827.09;;;24.64
53667;BMP280;39568;51.026;5.468;2022-10-30T14:07:14;100816.56;;;24.70
53667;BMP280;39568;51.026;5.468;2022-10-30T14:09:53;100816.19;;;25.09
53667;BMP280;39568;51.026;5.468;2022-10-30T14:12:50;100817.75;;;24.67
53667;BMP280;39568;51.026;5.468;2022-10-30T14:15:25;100809.47;;;26.41
53667;BMP280;39568;51.026;5.468;2022-10-30T14:21:29;100818.50;;;26.82
53667;BMP280;39568;51.026;5.468;2022-10-30T14:24:04;100822.44;;;25.92
53667;BMP280;39568;51.026;5.468;2022-10-30T14:26:36;100814.03;;;24.96
53667;BMP280;39568;51.026;5.468;2022-10-30T14:32:39;100815.41;;;23.99
53667;BMP280;39568;51.026;5.468;2022-10-30T14:38:23;100825.69;;;23.69
53667;BMP280;39568;51.026;5.468;2022-10-30T14:43:47;100827.16;;;23.21